Time;durP1;ratioP1;P1;durP2;ratioP2;P2;SDS_P1;SDS_P2;PMS_P1;PMS_P2;Temp;Humidity;BMP_temperature;BMP_pressure;BME280_temperature;BME280_humidity;BME280_pressure;Samples;Min_cycle;Max_cycle;Signal;HPM_P1;HPM_P2
2022/10/15 00:00:35;;;;;;;;;;;19.70;97.10;;;;;;5018220;28;19956;-69
2022/10/15 00:03:03;;;;;;;;;;;19.70;96.50;;;;;;5018845;28;19921;-69
2022/10/15 00:05:30;;;;;;;;;;;19.70;95.90;;;;;;5015295;28;19913;-70
2022/10/15 00:07:56;;;;;;;;;;;19.70;95.40;;;;;;5009560;28;19917;-72
2022/10/15 00:10:23;;;;;;;;;;;19.60;96.60;;;;;;5018606;28;20302;-69
2022/10/15 00:12:50;;;;;;;;;;;19.80;96.00;;;;;;5018603;28;19925;-68
2022/10/15 00:15:16;;;;;;;;;;;19.90;95.40;;;;;;5003949;28;20029;-69
2022/10/15 00:17:43;;;;;;;;;;;19.70;96.40;;;;;;5012237;28;19913;-71
2022/10/15 00:20:10;;;;;;;;;;;19.70;95.70;;;;;;5023398;28;19913;-70
2022/10/15 00:22:37;;;;;;;;;;;19.70;96.10;;;;;;5022881;28;20003;-72
2022/10/15 00:25:05;;;;;;;;;;;19.80;95.50;;;;;;5023192;28;20375;-68
2022/10/15 00:27:32;;;;;;;;;;;19.90;96.40;;;;;;5022535;28;19917;-68
2022/10/15 00:29:59;;;;;;;;;;;20.20;95.90;;;;;;5013805;28;20382;-69
2022/10/15 00:32:26;;;;;;;;;;;20.20;95.50;;;;;;5003400;28;19918;-66
2022/10/15 00:34:52;;;;;;;;;;;20.30;95.50;;;;;;5003952;28;19921;-68
2022/10/15 00:37:20;;;;;;;;;;;20.30;95.10;;;;;;5003419;28;20426;-64
2022/10/15 00:39:46;;;;;;;;;;;20.40;94.30;;;;;;5003272;28;19913;-66
2022/10/15 00:42:13;;;;;;;;;;;20.50;94.80;;;;;;5003479;28;20367;-67
2022/10/15 00:44:48;;;;;;;;;;;20.60;94.40;;;;;;5004198;28;19917;-66
2022/10/15 00:47:26;;;;;;;;;;;20.70;94.30;;;;;;5003614;28;20338;-65
2022/10/15 00:49:58;;;;;;;;;;;21.00;94.60;;;;;;5003510;28;19921;-65
2022/10/15 00:52:27;;;;;;;;;;;21.10;94.30;;;;;;5002694;28;19963;-67
2022/10/15 00:54:57;;;;;;;;;;;21.50;94.80;;;;;;5003482;28;19952;-66
2022/10/15 00:57:24;;;;;;;;;;;22.20;94.00;;;;;;5003806;28;20101;-66
2022/10/15 00:59:53;;;;;;;;;;;22.00;93.00;;;;;;5003361;28;19925;-70
2022/10/15 01:02:20;;;;;;;;;;;22.10;92.90;;;;;;5003366;28;19953;-65
2022/10/15 01:04:47;;;;;;;;;;;22.30;92.70;;;;;;5003062;28;19914;-67
2022/10/15 01:07:13;;;;;;;;;;;22.10;92.30;;;;;;5018068;28;19913;-65
2022/10/15 01:09:43;;;;;;;;;;;22.10;92.10;;;;;;5023060;28;19913;-65
2022/10/15 01:12:15;;;;;;;;;;;22.10;92.30;;;;;;5022903;28;20214;-66
2022/10/15 01:14:46;;;;;;;;;;;21.90;92.80;;;;;;5025316;28;20275;-64
2022/10/15 01:17:33;;;;;;;;;;;21.90;92.50;;;;;;5029581;28;20351;-64
2022/10/15 01:20:15;;;;;;;;;;;21.70;92.90;;;;;;5029508;28;20024;-64
2022/10/15 01:22:41;;;;;;;;;;;21.40;93.20;;;;;;5029113;28;19917;-65
2022/10/15 01:25:17;;;;;;;;;;;21.50;93.10;;;;;;5029572;28;19909;-65
2022/10/15 01:27:55;;;;;;;;;;;21.40;93.70;;;;;;5029644;28;19913;-64
2022/10/15 01:30:22;;;;;;;;;;;21.90;93.40;;;;;;5029766;28;19913;-65
2022/10/15 01:32:49;;;;;;;;;;;21.80;94.20;;;;;;5028763;28;19913;-65
2022/10/15 01:35:29;;;;;;;;;;;21.70;94.00;;;;;;5033319;28;19960;-66
2022/10/15 01:38:02;;;;;;;;;;;21.50;94.10;;;;;;5033724;28;20283;-64
2022/10/15 01:40:41;;;;;;;;;;;21.40;94.70;;;;;;5032830;28;19999;-64
2022/10/15 01:43:34;;;;;;;;;;;21.20;94.60;;;;;;5033102;28;19948;-66
2022/10/15 01:46:04;;;;;;;;;;;21.20;95.20;;;;;;5002481;28;19913;-64
2022/10/15 01:48:32;;;;;;;;;;;21.40;94.30;;;;;;5033308;28;20291;-64
2022/10/15 01:51:00;;;;;;;;;;;21.10;94.50;;;;;;5032822;28;20465;-65
2022/10/15 01:53:28;;;;;;;;;;;21.10;94.60;;;;;;5032845;28;19924;-65
2022/10/15 01:55:59;;;;;;;;;;;21.10;94.70;;;;;;5033179;28;19909;-64
2022/10/15 01:58:27;;;;;;;;;;;21.10;95.30;;;;;;5032683;28;19925;-64
2022/10/15 02:00:55;;;;;;;;;;;21.10;95.70;;;;;;5032506;28;20007;-65
2022/10/15 02:03:21;;;;;;;;;;;21.10;96.00;;;;;;5032820;28;19913;-64
2022/10/15 02:05:52;;;;;;;;;;;21.10;95.90;;;;;;5032432;28;20405;-65
2022/10/15 02:08:28;;;;;;;;;;;21.20;95.90;;;;;;5032748;28;19909;-66
2022/10/15 02:10:58;;;;;;;;;;;21.00;95.50;;;;;;5032252;28;20256;-65
2022/10/15 02:13:30;;;;;;;;;;;20.90;95.80;;;;;;5032644;28;19952;-64
2022/10/15 02:16:06;;;;;;;;;;;20.60;96.00;;;;;;5032803;28;19909;-63
2022/10/15 02:18:33;;;;;;;;;;;20.50;96.50;;;;;;5033132;28;20263;-63
2022/10/15 02:21:02;;;;;;;;;;;20.40;96.10;;;;;;5032300;28;19913;-63
2022/10/15 02:23:46;;;;;;;;;;;20.40;96.10;;;;;;5032044;28;19913;-65
2022/10/15 02:26:13;;;;;;;;;;;20.50;96.80;;;;;;5033061;28;20253;-63
2022/10/15 02:28:42;;;;;;;;;;;20.70;96.40;;;;;;5032433;28;20326;-64
2022/10/15 02:31:09;;;;;;;;;;;20.70;96.30;;;;;;5032118;28;20387;-63
2022/10/15 02:33:36;;;;;;;;;;;20.60;96.90;;;;;;5032169;28;19974;-65
2022/10/15 02:36:03;;;;;;;;;;;20.80;96.80;;;;;;5032167;28;19913;-64
2022/10/15 02:38:32;;;;;;;;;;;20.80;95.90;;;;;;5031921;28;20351;-66
2022/10/15 02:40:59;;;;;;;;;;;20.80;96.90;;;;;;5032130;28;19909;-64
2022/10/15 02:43:25;;;;;;;;;;;20.70;96.50;;;;;;5032252;28;19916;-65
2022/10/15 02:45:52;;;;;;;;;;;20.60;96.70;;;;;;5030767;28;19917;-65
2022/10/15 02:48:18;;;;;;;;;;;20.50;95.70;;;;;;5032047;28;19920;-63
2022/10/15 02:50:45;;;;;;;;;;;20.50;96.60;;;;;;5031463;28;19920;-64
2022/10/15 02:53:12;;;;;;;;;;;20.60;97.60;;;;;;5031769;28;20409;-65
2022/10/15 02:55:39;;;;;;;;;;;20.60;98.60;;;;;;5031925;28;20404;-65
2022/10/15 02:58:05;;;;;;;;;;;20.60;98.60;;;;;;5031795;28;19941;-66
2022/10/15 03:00:32;;;;;;;;;;;20.50;97.70;;;;;;5031484;28;19992;-65
2022/10/15 03:02:59;;;;;;;;;;;20.40;95.70;;;;;;5031514;28;19920;-65
2022/10/15 03:05:25;;;;;;;;;;;20.40;97.30;;;;;;5031807;28;19910;-64
2022/10/15 03:07:52;;;;;;;;;;;20.30;97.40;;;;;;5031441;28;19912;-66
2022/10/15 03:10:19;;;;;;;;;;;20.30;96.30;;;;;;5031775;28;19916;-68
2022/10/15 03:12:45;;;;;;;;;;;20.30;96.20;;;;;;5031288;28;20217;-66
2022/10/15 03:15:12;;;;;;;;;;;20.30;96.10;;;;;;5031497;28;19924;-64
2022/10/15 03:17:39;;;;;;;;;;;20.20;97.30;;;;;;5031178;28;20252;-65
2022/10/15 03:20:06;;;;;;;;;;;20.20;98.10;;;;;;5031479;28;19916;-63
2022/10/15 03:22:32;;;;;;;;;;;20.20;97.20;;;;;;5030770;28;19913;-64
2022/10/15 03:24:59;;;;;;;;;;;20.30;96.60;;;;;;5031537;28;19986;-64
2022/10/15 03:27:26;;;;;;;;;;;20.30;98.00;;;;;;5031821;28;19913;-64
2022/10/15 03:29:53;;;;;;;;;;;20.40;97.20;;;;;;5031071;28;19920;-67
2022/10/15 03:32:19;;;;;;;;;;;20.30;97.00;;;;;;5030866;28;19967;-65
2022/10/15 03:34:46;;;;;;;;;;;20.20;97.30;;;;;;5030995;28;20478;-64
2022/10/15 03:37:13;;;;;;;;;;;20.10;97.20;;;;;;5032264;28;19913;-65
2022/10/15 03:39:39;;;;;;;;;;;20.20;97.20;;;;;;5032883;28;20243;-64
2022/10/15 03:42:06;;;;;;;;;;;20.30;96.90;;;;;;5032834;28;19910;-65
2022/10/15 03:44:33;;;;;;;;;;;20.50;97.00;;;;;;5033084;28;19963;-66
2022/10/15 03:47:00;;;;;;;;;;;20.50;95.60;;;;;;5033088;28;19913;-65
2022/10/15 03:49:26;;;;;;;;;;;20.30;95.50;;;;;;5032940;28;19909;-65
2022/10/15 03:51:53;;;;;;;;;;;20.20;94.80;;;;;;5032096;28;19919;-66
2022/10/15 03:54:20;;;;;;;;;;;20.30;95.50;;;;;;5032602;28;19921;-65
2022/10/15 03:56:46;;;;;;;;;;;20.20;94.80;;;;;;5032614;28;20023;-65
2022/10/15 03:59:13;;;;;;;;;;;20.20;96.10;;;;;;5032604;28;19971;-66
2022/10/15 04:01:40;;;;;;;;;;;20.20;97.00;;;;;;5032071;28;19963;-65
2022/10/15 04:04:07;;;;;;;;;;;20.20;98.20;;;;;;5032712;28;19920;-65
2022/10/15 04:06:33;;;;;;;;;;;20.20;98.30;;;;;;5032279;28;19909;-65
2022/10/15 04:09:00;;;;;;;;;;;20.20;97.70;;;;;;5032627;28;19939;-65
2022/10/15 04:11:27;;;;;;;;;;;20.10;96.10;;;;;;5032032;28;20288;-65
2022/10/15 04:13:53;;;;;;;;;;;20.00;95.10;;;;;;5032162;28;20433;-64
2022/10/15 04:16:20;;;;;;;;;;;20.00;97.50;;;;;;5032326;28;19910;-65
2022/10/15 04:18:47;;;;;;;;;;;20.10;98.60;;;;;;5032314;28;20401;-65
2022/10/15 04:21:13;;;;;;;;;;;20.10;97.70;;;;;;5031802;28;19913;-64
2022/10/15 04:23:40;;;;;;;;;;;20.00;99.80;;;;;;5032151;28;19913;-65
2022/10/15 04:26:06;;;;;;;;;;;20.10;99.90;;;;;;5032611;28;20363;-64
2022/10/15 04:28:33;;;;;;;;;;;20.10;99.00;;;;;;5032136;28;19913;-65
2022/10/15 04:31:00;;;;;;;;;;;20.10;98.50;;;;;;5031875;28;19979;-64
2022/10/15 04:33:27;;;;;;;;;;;20.10;98.70;;;;;;5032360;28;20004;-65
2022/10/15 04:35:58;;;;;;;;;;;20.00;99.70;;;;;;5032415;28;19920;-70
2022/10/15 04:38:25;;;;;;;;;;;20.00;99.90;;;;;;5032172;28;20004;-65
2022/10/15 04:41:17;;;;;;;;;;;20.00;99.90;;;;;;5031579;28;19947;-68
2022/10/15 04:43:44;;;;;;;;;;;20.00;98.90;;;;;;5028374;28;19917;-66
2022/10/15 04:46:11;;;;;;;;;;;20.10;99.90;;;;;;5031995;28;20389;-66
2022/10/15 04:48:38;;;;;;;;;;;20.00;99.90;;;;;;5032133;28;19909;-64
2022/10/15 04:51:04;;;;;;;;;;;19.90;99.90;;;;;;5031542;28;20315;-65
2022/10/15 04:53:31;;;;;;;;;;;19.90;99.90;;;;;;5031602;28;19925;-64
2022/10/15 04:56:02;;;;;;;;;;;19.80;99.90;;;;;;5032087;28;19955;-64
2022/10/15 04:58:29;;;;;;;;;;;19.90;99.90;;;;;;5031809;28;19917;-67
2022/10/15 05:00:58;;;;;;;;;;;19.80;99.90;;;;;;5031701;28;20268;-64
2022/10/15 05:03:25;;;;;;;;;;;19.80;99.90;;;;;;5032008;28;19909;-65
2022/10/15 05:05:52;;;;;;;;;;;19.80;99.30;;;;;;5031342;28;19971;-66
2022/10/15 05:08:18;;;;;;;;;;;19.70;99.90;;;;;;5032796;28;19913;-65
2022/10/15 05:10:45;;;;;;;;;;;19.60;99.90;;;;;;5035871;28;19913;-65
2022/10/15 05:13:11;;;;;;;;;;;19.60;99.90;;;;;;5036033;28;19928;-67
2022/10/15 05:15:38;;;;;;;;;;;19.60;99.90;;;;;;5035987;28;20008;-67
2022/10/15 05:18:05;;;;;;;;;;;19.60;99.90;;;;;;5035807;28;19941;-67
2022/10/15 05:20:31;;;;;;;;;;;19.60;99.90;;;;;;5035322;28;20321;-66
2022/10/15 05:22:58;;;;;;;;;;;19.60;99.90;;;;;;5036097;28;19948;-67
2022/10/15 05:25:25;;;;;;;;;;;19.50;99.90;;;;;;5035894;28;19913;-67
2022/10/15 05:27:51;;;;;;;;;;;19.30;99.90;;;;;;5035451;28;20351;-66
2022/10/15 05:30:18;;;;;;;;;;;19.40;99.90;;;;;;5035303;28;19917;-67
2022/10/15 05:32:44;;;;;;;;;;;19.50;99.90;;;;;;5035581;28;20299;-66
2022/10/15 05:35:11;;;;;;;;;;;19.60;99.90;;;;;;5035445;28;19921;-67
2022/10/15 05:37:38;;;;;;;;;;;19.50;99.90;;;;;;5035397;28;19996;-67
2022/10/15 05:40:05;;;;;;;;;;;19.50;99.90;;;;;;5035088;28;20003;-67
2022/10/15 05:42:31;;;;;;;;;;;19.50;99.90;;;;;;5035283;28;19913;-70
2022/10/15 05:44:58;;;;;;;;;;;19.30;99.90;;;;;;5035587;28;19921;-67
2022/10/15 05:47:25;;;;;;;;;;;19.30;99.90;;;;;;5035392;28;20294;-67
2022/10/15 05:49:51;;;;;;;;;;;19.30;99.90;;;;;;5035230;28;19913;-64
2022/10/15 05:52:18;;;;;;;;;;;19.40;99.90;;;;;;5034455;28;20274;-65
2022/10/15 05:54:45;;;;;;;;;;;19.30;99.90;;;;;;5035379;28;19914;-65
2022/10/15 05:57:11;;;;;;;;;;;19.30;99.90;;;;;;5035177;28;19952;-64
2022/10/15 05:59:38;;;;;;;;;;;19.30;99.90;;;;;;5034885;28;19925;-65
2022/10/15 06:02:05;;;;;;;;;;;19.30;99.90;;;;;;5035047;28;20394;-65
2022/10/15 06:04:31;;;;;;;;;;;19.30;99.90;;;;;;5034966;28;20389;-65
2022/10/15 06:06:58;;;;;;;;;;;19.30;99.90;;;;;;5034762;28;19909;-64
2022/10/15 06:09:25;;;;;;;;;;;19.20;99.90;;;;;;5035008;28;19919;-65
2022/10/15 06:11:51;;;;;;;;;;;19.20;99.90;;;;;;5034173;28;20000;-64
2022/10/15 06:14:18;;;;;;;;;;;19.10;99.90;;;;;;5034564;28;19957;-65
2022/10/15 06:16:49;;;;;;;;;;;19.20;99.90;;;;;;5035050;28;20273;-65
2022/10/15 06:19:16;;;;;;;;;;;19.10;99.90;;;;;;5034708;28;19913;-66
2022/10/15 06:21:42;;;;;;;;;;;19.00;99.90;;;;;;5034039;28;19909;-65
2022/10/15 06:24:09;;;;;;;;;;;19.00;99.90;;;;;;5034785;28;20002;-65
2022/10/15 06:26:36;;;;;;;;;;;19.00;99.90;;;;;;5034648;28;20359;-65
2022/10/15 06:29:02;;;;;;;;;;;19.00;99.90;;;;;;5034597;28;19921;-65
2022/10/15 06:31:30;;;;;;;;;;;19.00;99.90;;;;;;5033886;28;19913;-65
2022/10/15 06:33:57;;;;;;;;;;;18.90;99.90;;;;;;5034512;28;19921;-66
2022/10/15 06:36:24;;;;;;;;;;;18.90;99.90;;;;;;5034236;28;20047;-63
2022/10/15 06:38:51;;;;;;;;;;;18.90;99.90;;;;;;5034245;28;19920;-67
2022/10/15 06:41:18;;;;;;;;;;;18.90;99.90;;;;;;5033832;28;19917;-66
2022/10/15 06:43:44;;;;;;;;;;;18.90;99.90;;;;;;5033934;28;19913;-66
2022/10/15 06:46:11;;;;;;;;;;;18.90;99.90;;;;;;5034102;28;19999;-65
2022/10/15 06:48:38;;;;;;;;;;;18.80;99.90;;;;;;5033883;28;19909;-65
2022/10/15 06:51:05;;;;;;;;;;;18.80;99.90;;;;;;5032344;28;20294;-66
2022/10/15 06:53:32;;;;;;;;;;;18.70;99.90;;;;;;5033701;28;20371;-65
2022/10/15 06:55:59;;;;;;;;;;;18.70;99.90;;;;;;5033912;28;19917;-66
2022/10/15 06:58:26;;;;;;;;;;;18.70;99.90;;;;;;5033659;28;20397;-66
2022/10/15 07:00:53;;;;;;;;;;;18.60;99.90;;;;;;5033552;28;19913;-65
2022/10/15 07:03:19;;;;;;;;;;;18.70;99.90;;;;;;5032586;28;19928;-65
2022/10/15 07:05:46;;;;;;;;;;;18.70;99.90;;;;;;5031485;28;20007;-66
2022/10/15 07:08:13;;;;;;;;;;;18.70;99.90;;;;;;5031986;28;20004;-66
2022/10/15 07:10:39;;;;;;;;;;;18.60;99.90;;;;;;5031296;28;19917;-67
2022/10/15 07:13:06;;;;;;;;;;;18.60;99.90;;;;;;5031768;28;20018;-63
2022/10/15 07:15:33;;;;;;;;;;;18.60;99.90;;;;;;5031562;28;20004;-65
2022/10/15 07:18:01;;;;;;;;;;;18.50;99.90;;;;;;5031768;28;20362;-69
2022/10/15 07:20:28;;;;;;;;;;;18.50;99.90;;;;;;5031051;28;20007;-66
2022/10/15 07:22:59;;;;;;;;;;;18.50;99.90;;;;;;5031560;28;20317;-66
2022/10/15 07:25:27;;;;;;;;;;;18.40;99.90;;;;;;5031523;28;19909;-66
2022/10/15 07:27:55;;;;;;;;;;;18.40;99.90;;;;;;5031319;28;19917;-66
2022/10/15 07:30:23;;;;;;;;;;;18.40;99.90;;;;;;5030653;28;20375;-66
2022/10/15 07:32:49;;;;;;;;;;;18.40;99.90;;;;;;5030741;28;20382;-66
2022/10/15 07:35:16;;;;;;;;;;;18.40;99.90;;;;;;5031170;28;19937;-66
2022/10/15 07:37:43;;;;;;;;;;;18.40;99.90;;;;;;5031024;28;19909;-66
2022/10/15 07:40:09;;;;;;;;;;;18.40;99.90;;;;;;5030906;28;19919;-67
2022/10/15 07:42:36;;;;;;;;;;;18.30;99.90;;;;;;5030901;28;19988;-65
2022/10/15 07:45:03;;;;;;;;;;;18.20;99.90;;;;;;5031390;28;19912;-66
2022/10/15 07:47:30;;;;;;;;;;;18.20;99.90;;;;;;5031036;28;19913;-65
2022/10/15 07:49:57;;;;;;;;;;;18.20;99.90;;;;;;5030572;28;19920;-65
2022/10/15 07:52:24;;;;;;;;;;;18.20;99.90;;;;;;5031069;28;19913;-65
2022/10/15 07:54:50;;;;;;;;;;;18.10;99.90;;;;;;5031100;28;20548;-66
2022/10/15 07:57:17;;;;;;;;;;;18.10;99.90;;;;;;5030829;28;19921;-68
2022/10/15 07:59:44;;;;;;;;;;;18.10;99.90;;;;;;5030816;28;20007;-65
2022/10/15 08:02:17;;;;;;;;;;;18.10;99.90;;;;;;5030633;28;19931;-65
2022/10/15 08:04:44;;;;;;;;;;;18.10;99.90;;;;;;5030794;28;19913;-65
2022/10/15 08:07:10;;;;;;;;;;;18.00;99.90;;;;;;5030837;28;19936;-67
2022/10/15 08:09:37;;;;;;;;;;;18.00;99.90;;;;;;5030148;28;19909;-69
2022/10/15 08:12:05;;;;;;;;;;;18.00;99.90;;;;;;5030373;28;19968;-65
2022/10/15 08:14:32;;;;;;;;;;;18.00;99.90;;;;;;5030534;28;19950;-66
2022/10/15 08:17:00;;;;;;;;;;;18.00;99.90;;;;;;5030698;28;20343;-66
2022/10/15 08:19:27;;;;;;;;;;;18.00;99.90;;;;;;5030560;28;19913;-67
2022/10/15 08:21:54;;;;;;;;;;;17.90;99.90;;;;;;5030026;28;20003;-65
2022/10/15 08:24:21;;;;;;;;;;;17.90;99.90;;;;;;5030604;28;20024;-66
2022/10/15 08:26:48;;;;;;;;;;;17.90;99.90;;;;;;5030497;28;19913;-66
2022/10/15 08:29:15;;;;;;;;;;;17.90;99.90;;;;;;5030259;28;20004;-67
2022/10/15 08:31:41;;;;;;;;;;;17.90;99.90;;;;;;5029920;28;19917;-67
2022/10/15 08:34:08;;;;;;;;;;;17.90;99.90;;;;;;5030278;28;20283;-66
2022/10/15 08:36:35;;;;;;;;;;;17.90;99.90;;;;;;5030171;28;19944;-65
2022/10/15 08:39:04;;;;;;;;;;;17.90;99.90;;;;;;5028940;28;19944;-67
2022/10/15 08:41:34;;;;;;;;;;;17.90;99.90;;;;;;5023255;28;19917;-65
2022/10/15 08:44:01;;;;;;;;;;;17.80;99.90;;;;;;5022942;28;20344;-64
2022/10/15 08:46:34;;;;;;;;;;;17.80;99.90;;;;;;5023940;28;19913;-65
2022/10/15 08:49:03;;;;;;;;;;;17.80;99.90;;;;;;5023549;28;19936;-68
2022/10/15 08:51:59;;;;;;;;;;;17.80;99.90;;;;;;5023306;28;19913;-65
2022/10/15 08:54:26;;;;;;;;;;;17.80;99.90;;;;;;5006573;28;19921;-65
2022/10/15 08:57:01;;;;;;;;;;;17.80;99.90;;;;;;5023764;28;19913;-65
2022/10/15 08:59:45;;;;;;;;;;;17.70;99.90;;;;;;5023537;28;20332;-65
2022/10/15 09:02:21;;;;;;;;;;;17.70;99.90;;;;;;5023245;28;20390;-65
2022/10/15 09:04:54;;;;;;;;;;;17.70;99.90;;;;;;5023539;28;19952;-65
2022/10/15 09:07:38;;;;;;;;;;;17.70;99.90;;;;;;5024005;28;20270;-64
2022/10/15 09:10:13;;;;;;;;;;;17.70;99.90;;;;;;5023410;28;19913;-65
2022/10/15 09:12:42;;;;;;;;;;;17.70;99.90;;;;;;5023651;28;20430;-70
2022/10/15 09:15:12;;;;;;;;;;;17.70;99.90;;;;;;5023314;28;19917;-65
2022/10/15 09:17:39;;;;;;;;;;;17.70;99.90;;;;;;5023532;28;20496;-65
2022/10/15 09:20:06;;;;;;;;;;;17.70;99.90;;;;;;5023076;28;19912;-65
2022/10/15 09:22:33;;;;;;;;;;;17.70;99.90;;;;;;5023466;28;19916;-66
2022/10/15 09:25:13;;;;;;;;;;;17.70;99.90;;;;;;5023343;28;19936;-67
2022/10/15 09:27:39;;;;;;;;;;;17.60;99.90;;;;;;5022471;28;19982;-65
2022/10/15 09:30:21;;;;;;;;;;;17.60;99.90;;;;;;5022946;28;19920;-65
2022/10/15 09:32:51;;;;;;;;;;;17.60;99.90;;;;;;5023258;28;20024;-65
2022/10/15 09:35:24;;;;;;;;;;;17.60;99.90;;;;;;5023079;28;19975;-66
2022/10/15 09:38:12;;;;;;;;;;;17.60;99.90;;;;;;5023477;28;19913;-65
2022/10/15 09:40:42;;;;;;;;;;;17.60;99.90;;;;;;5022436;28;19913;-66
2022/10/15 09:43:09;;;;;;;;;;;17.60;99.90;;;;;;5023504;28;20391;-70
2022/10/15 09:45:36;;;;;;;;;;;17.60;99.90;;;;;;5023007;28;19920;-66
2022/10/15 09:48:09;;;;;;;;;;;17.50;99.90;;;;;;5023373;28;20608;-65
2022/10/15 09:50:40;;;;;;;;;;;17.50;99.90;;;;;;5022520;28;19920;-65
2022/10/15 09:53:07;;;;;;;;;;;17.60;99.90;;;;;;5023353;28;19995;-65
2022/10/15 09:55:43;;;;;;;;;;;17.60;99.90;;;;;;5025728;28;19918;-68
2022/10/15 09:58:19;;;;;;;;;;;17.60;99.90;;;;;;5026650;28;20004;-66
2022/10/15 10:00:53;;;;;;;;;;;17.50;99.90;;;;;;5026485;28;19924;-74
2022/10/15 10:03:21;;;;;;;;;;;17.60;99.90;;;;;;5026777;28;20371;-66
2022/10/15 10:05:48;;;;;;;;;;;17.60;99.90;;;;;;5026131;28;19913;-69
2022/10/15 10:08:23;;;;;;;;;;;17.50;99.90;;;;;;5026586;28;20034;-73
2022/10/15 10:10:57;;;;;;;;;;;17.60;99.90;;;;;;5025748;28;19996;-74
2022/10/15 10:13:31;;;;;;;;;;;17.60;99.90;;;;;;5026770;28;19929;-73
2022/10/15 10:16:11;;;;;;;;;;;17.60;99.90;;;;;;5025721;28;19913;-74
2022/10/15 10:18:38;;;;;;;;;;;17.60;99.90;;;;;;5028922;28;20403;-75
2022/10/15 10:21:11;;;;;;;;;;;17.70;99.90;;;;;;5025199;28;19956;-75
2022/10/15 10:23:38;;;;;;;;;;;17.70;99.90;;;;;;5026337;28;19913;-74
2022/10/15 10:26:06;;;;;;;;;;;17.80;99.90;;;;;;5026441;28;20355;-74
2022/10/15 10:28:52;;;;;;;;;;;17.80;99.90;;;;;;5026318;28;21265;-69
2022/10/15 10:31:27;;;;;;;;;;;17.80;99.90;;;;;;5026009;28;19937;-68
2022/10/15 10:33:54;;;;;;;;;;;17.80;99.90;;;;;;5025562;28;19921;-67
2022/10/15 10:36:20;;;;;;;;;;;17.90;99.90;;;;;;5026041;28;20008;-68
2022/10/15 10:39:20;;;;;;;;;;;17.90;99.90;;;;;;5024573;28;20355;-68
2022/10/15 10:41:52;;;;;;;;;;;17.90;99.90;;;;;;5025293;28;19912;-69
2022/10/15 10:44:30;;;;;;;;;;;17.90;99.90;;;;;;5025122;28;19913;-71
2022/10/15 10:47:05;;;;;;;;;;;17.90;99.90;;;;;;5025410;28;19939;-69
2022/10/15 10:49:33;;;;;;;;;;;17.90;99.90;;;;;;5455812;23;20425;-75
2022/10/15 10:52:00;;;;;;;;;;;17.90;99.90;;;;;;4955935;28;19918;-67
2022/10/15 10:54:28;;;;;;;;;;;17.90;99.90;;;;;;4967039;28;20466;-67
2022/10/15 10:56:55;;;;;;;;;;;17.90;99.90;;;;;;4952722;28;19914;-72
2022/10/15 10:59:32;;;;;;;;;;;17.80;99.90;;;;;;4947389;28;19915;-70
2022/10/15 11:01:59;;;;;;;;;;;17.80;99.90;;;;;;4947773;28;19919;-70
2022/10/15 11:04:30;;;;;;;;;;;17.80;99.90;;;;;;4947265;28;19915;-69
2022/10/15 11:07:16;;;;;;;;;;;17.80;99.90;;;;;;4959053;28;19918;-74
2022/10/15 11:09:46;;;;;;;;;;;17.80;99.90;;;;;;4948471;28;19920;-66
2022/10/15 11:12:34;;;;;;;;;;;17.80;99.90;;;;;;4956722;28;19914;-72
2022/10/15 11:15:23;;;;;;;;;;;17.80;99.90;;;;;;4966592;28;19936;-72
2022/10/15 11:18:08;;;;;;;;;;;17.80;99.90;;;;;;4961085;28;19921;-75
2022/10/15 11:20:41;;;;;;;;;;;17.90;99.90;;;;;;4966487;28;20490;-66
2022/10/15 11:23:10;;;;;;;;;;;17.90;99.90;;;;;;4966967;28;20362;-69
2022/10/15 11:25:44;;;;;;;;;;;17.90;99.90;;;;;;4927826;28;19950;-69
2022/10/15 11:28:20;;;;;;;;;;;17.90;99.90;;;;;;4910387;29;19915;-73
2022/10/15 11:30:51;;;;;;;;;;;17.90;99.90;;;;;;4909259;29;19922;-73
2022/10/15 11:33:38;;;;;;;;;;;18.00;99.90;;;;;;4914754;29;19933;-69
2022/10/15 11:36:05;;;;;;;;;;;18.00;99.90;;;;;;4928731;29;19921;-67
2022/10/15 11:38:41;;;;;;;;;;;18.10;99.90;;;;;;4927865;29;20025;-72
2022/10/15 11:41:37;;;;;;;;;;;18.00;99.90;;;;;;4928195;29;20292;-67
2022/10/15 11:44:04;;;;;;;;;;;18.00;99.90;;;;;;4927096;29;19942;-67
2022/10/15 11:46:39;;;;;;;;;;;18.00;99.90;;;;;;4930091;29;19914;-71
2022/10/15 11:49:18;;;;;;;;;;;18.00;99.90;;;;;;4931131;29;19926;-74
2022/10/15 11:51:57;;;;;;;;;;;18.00;99.90;;;;;;4927877;29;19915;-69
2022/10/15 11:54:24;;;;;;;;;;;18.00;99.90;;;;;;4927535;29;19968;-71
2022/10/15 11:56:52;;;;;;;;;;;18.00;99.90;;;;;;4927010;29;19915;-69
2022/10/15 11:59:32;;;;;;;;;;;17.90;99.90;;;;;;4927787;29;19970;-67
2022/10/15 12:02:04;;;;;;;;;;;18.00;99.90;;;;;;4944539;28;19927;-70
2022/10/15 12:04:40;;;;;;;;;;;17.90;99.90;;;;;;4947090;28;20045;-70
2022/10/15 12:07:11;;;;;;;;;;;17.90;99.90;;;;;;4953317;28;19914;-74
2022/10/15 12:09:40;;;;;;;;;;;17.90;99.90;;;;;;4953754;28;19922;-74
2022/10/15 12:12:09;;;;;;;;;;;17.90;99.90;;;;;;4946586;28;19976;-72
2022/10/15 12:14:36;;;;;;;;;;;17.90;99.90;;;;;;4945920;28;19929;-72
2022/10/15 12:17:08;;;;;;;;;;;17.90;99.90;;;;;;4945576;28;19914;-66
2022/10/15 12:20:01;;;;;;;;;;;17.90;99.90;;;;;;4946615;28;20443;-72
2022/10/15 12:22:32;;;;;;;;;;;17.90;99.90;;;;;;4923569;28;19932;-71
2022/10/15 12:24:59;;;;;;;;;;;17.90;99.90;;;;;;4945908;28;19921;-70
2022/10/15 12:27:33;;;;;;;;;;;17.90;99.90;;;;;;4945806;28;19921;-71
2022/10/15 12:29:59;;;;;;;;;;;17.90;99.90;;;;;;4946138;28;19962;-70
2022/10/15 12:32:35;;;;;;;;;;;17.80;99.90;;;;;;4946125;28;20523;-69
2022/10/15 12:35:05;;;;;;;;;;;17.80;99.90;;;;;;4945964;28;19952;-70
2022/10/15 12:37:33;;;;;;;;;;;17.80;99.90;;;;;;4946280;28;19914;-71
2022/10/15 12:40:02;;;;;;;;;;;17.70;99.90;;;;;;4945511;28;19921;-73
2022/10/15 12:42:34;;;;;;;;;;;17.60;99.90;;;;;;4946092;28;20170;-70
2022/10/15 12:45:02;;;;;;;;;;;17.60;99.90;;;;;;4945673;28;19914;-75
2022/10/15 12:47:47;;;;;;;;;;;17.60;99.90;;;;;;4945908;28;19997;-70
2022/10/15 12:50:25;;;;;;;;;;;17.50;99.90;;;;;;4945803;28;19926;-73
2022/10/15 12:52:59;;;;;;;;;;;17.50;99.90;;;;;;4945174;28;20436;-73
2022/10/15 12:55:27;;;;;;;;;;;17.50;99.90;;;;;;4945451;28;19949;-74
2022/10/15 12:57:58;;;;;;;;;;;17.40;99.90;;;;;;4946063;28;19914;-69
2022/10/15 13:00:25;;;;;;;;;;;17.40;99.90;;;;;;4945906;28;19920;-69
2022/10/15 13:02:53;;;;;;;;;;;17.50;99.90;;;;;;4945584;29;20017;-69
2022/10/15 13:05:25;;;;;;;;;;;17.50;99.90;;;;;;4945788;28;19922;-69
2022/10/15 13:07:52;;;;;;;;;;;17.50;99.90;;;;;;4945354;28;19962;-69
2022/10/15 13:10:21;;;;;;;;;;;17.50;99.90;;;;;;4945582;28;20422;-69
2022/10/15 13:12:53;;;;;;;;;;;17.60;99.90;;;;;;4945305;28;19918;-70
2022/10/15 13:15:21;;;;;;;;;;;17.60;99.90;;;;;;4945094;28;19915;-68
2022/10/15 13:17:48;;;;;;;;;;;17.70;99.90;;;;;;4945489;28;20436;-71
2022/10/15 13:20:38;;;;;;;;;;;17.70;99.90;;;;;;4943988;29;20369;-72
2022/10/15 13:23:20;;;;;;;;;;;17.70;99.90;;;;;;4942607;28;20429;-71
2022/10/15 13:25:47;;;;;;;;;;;17.80;99.90;;;;;;4945494;28;20233;-71
2022/10/15 13:28:30;;;;;;;;;;;17.80;99.90;;;;;;4945414;28;19915;-71
2022/10/15 13:30:57;;;;;;;;;;;17.90;99.90;;;;;;4948642;28;19919;-69
2022/10/15 13:33:24;;;;;;;;;;;18.00;99.90;;;;;;4948690;28;20025;-70
2022/10/15 13:35:51;;;;;;;;;;;18.00;99.90;;;;;;4948782;28;20247;-67
2022/10/15 13:38:22;;;;;;;;;;;18.00;99.90;;;;;;4949005;28;20144;-68
2022/10/15 13:40:50;;;;;;;;;;;18.00;99.90;;;;;;4949053;28;20337;-73
2022/10/15 13:43:21;;;;;;;;;;;18.00;99.90;;;;;;4949211;28;20015;-72
2022/10/15 13:45:48;;;;;;;;;;;18.00;99.90;;;;;;4946848;29;19915;-69
2022/10/15 13:48:20;;;;;;;;;;;18.00;99.90;;;;;;4949235;28;20277;-71
2022/10/15 13:50:49;;;;;;;;;;;17.90;99.90;;;;;;4948537;28;20329;-68
2022/10/15 13:53:25;;;;;;;;;;;17.90;99.90;;;;;;4948801;28;19922;-72
2022/10/15 13:55:53;;;;;;;;;;;18.00;99.90;;;;;;4948592;28;19997;-68
2022/10/15 13:58:37;;;;;;;;;;;18.00;99.90;;;;;;4948495;28;20262;-68
2022/10/15 14:01:15;;;;;;;;;;;17.90;99.90;;;;;;4949059;28;19958;-70
2022/10/15 14:03:51;;;;;;;;;;;18.00;99.90;;;;;;4948541;28;20715;-71
2022/10/15 14:06:28;;;;;;;;;;;18.00;99.90;;;;;;4948341;28;20683;-70
2022/10/15 14:08:56;;;;;;;;;;;18.00;99.90;;;;;;4948205;28;20266;-70
2022/10/15 14:11:23;;;;;;;;;;;18.10;99.90;;;;;;4948118;28;20338;-74
2022/10/15 14:13:50;;;;;;;;;;;18.10;99.90;;;;;;4948448;28;20409;-69
2022/10/15 14:16:19;;;;;;;;;;;18.10;99.90;;;;;;4948308;28;19997;-70
2022/10/15 14:18:48;;;;;;;;;;;18.10;99.90;;;;;;4948381;28;20361;-69
2022/10/15 14:21:17;;;;;;;;;;;18.10;99.90;;;;;;4956231;28;19914;-68
2022/10/15 14:23:44;;;;;;;;;;;18.10;99.90;;;;;;4956540;28;19921;-65
2022/10/15 14:26:12;;;;;;;;;;;18.00;99.90;;;;;;4956400;28;20365;-70
2022/10/15 14:28:39;;;;;;;;;;;18.00;99.90;;;;;;4956618;28;19918;-69
2022/10/15 14:31:07;;;;;;;;;;;18.00;99.90;;;;;;4956794;28;19910;-67